Latest Weather Observations for Cape Leeuwin

IDW60801

Issued at 2:32 pm WST Thursday 5 May 2016 (issued every 30 minutes, with the page automatically refreshed every 10 minutes)

About weather observations | Map of weather stations | Latest weather observations for WA | Other Formats
Station Details ID: 009518 Name: CAPE LEEUWIN Lat: -34.37 Lon: 115.14 Height: 13.0 m
Data from the previous 72 hours. | See also: Recent months at Cape Leeuwin
Date/Time
WST
Temp
°C
App
Temp
°C
Dew
Point
Rel
Hum
%
Delta-T
°C
Wind Press
QNH
hPa
Press
MSL
hPa
Rain
since 9 am
mm
Dir
 
Spd
km/h
Gust
km/h
Spd
kts
Gust
kts
05/02:30pm 17.1 13.4 6.5 49 5.2 SW 15 20 8 11 1015.0 1015.0 0.0
05/02:00pm 17.4 13.7 6.4 48 5.4 S 15 20 8 11 1015.1 1015.1 0.0
05/01:30pm 17.5 13.5 6.8 49 5.3 SW 17 24 9 13 1015.3 1015.3 0.0
05/01:00pm 18.5 14.7 7.7 49 5.5 WSW 17 22 9 12 1015.4 1015.4 0.0
05/12:30pm 18.1 14.5 6.6 47 5.7 SSW 15 24 8 13 1015.4 1015.4 0.0
05/12:00pm 17.6 14.0 8.2 54 4.8 SW 17 22 9 12 1015.8 1015.8 0.0
05/11:30am 17.4 14.3 7.2 51 5.1 SSW 13 20 7 11 1016.2 1016.2 0.0
05/11:00am 16.9 13.3 6.8 51 5.0 SW 15 22 8 12 1016.6 1016.6 0.0
05/10:30am 17.5 13.5 8.1 54 4.8 SSW 19 24 10 13 1016.6 1016.6 0.0
05/10:00am 16.7 12.7 8.2 57 4.3 SSW 19 24 10 13 1016.6 1016.6 0.0
05/09:30am 17.5 13.4 7.8 53 4.9 SSW 19 24 10 13 1016.5 1016.5 0.0
05/09:00am 16.4 11.8 8.1 58 4.2 SSW 22 32 12 17 1016.3 1016.3 1.6
05/08:30am 16.0 11.4 8.3 60 3.9 SSW 22 28 12 15 1016.1 1016.1 1.6
05/08:00am 15.8 11.6 8.3 61 3.8 SSW 20 28 11 15 1015.9 1015.9 1.6
05/07:30am 15.6 11.2 9.0 65 3.4 SW 22 32 12 17 1015.5 1015.5 1.6
05/07:00am 15.8 10.5 9.9 68 3.1 SW 28 39 15 21 1015.3 1015.3 1.6
05/06:30am 16.5 11.1 10.9 69 3.0 SW 30 37 16 20 1015.2 1015.2 1.6
05/06:00am 16.4 12.0 11.6 73 2.6 SW 26 35 14 19 1015.0 1015.0 1.6
05/05:30am 16.4 11.5 12.6 78 2.1 SW 30 35 16 19 1014.8 1014.8 1.6
05/05:00am 16.5 12.0 12.7 78 2.1 SW 28 39 15 21 1014.6 1014.6 1.6
05/04:30am 16.4 12.0 13.0 80 1.9 SW 28 35 15 19 1014.3 1014.3 1.6
05/04:00am 16.5 11.1 12.9 79 2.0 SW 33 41 18 22 1014.4 1014.4 1.6
05/03:30am 16.7 12.0 14.8 88 1.1 SSW 33 43 18 23 1014.3 1014.3 1.6
05/03:00am 16.5 12.4 13.8 84 1.5 SW 28 39 15 21 1014.2 1014.2 1.6
05/02:30am 16.7 12.0 14.4 86 1.3 SW 32 39 17 21 1014.2 1014.2 1.6
05/02:00am 16.5 11.6 15.3 93 0.7 SW 35 44 19 24 1014.2 1014.2 1.2
05/01:46am 16.2 9.1 15.0 93 0.7 WSW 46 65 25 35 1014.1 1014.1 1.2
05/01:37am 17.8 11.6 14.9 83 1.7 WSW 41 61 22 33 1013.7 1013.7 0.2
05/01:30am 17.8 12.3 13.6 76 2.4 W 35 46 19 25 1013.6 1013.6 0.2
05/01:00am 18.3 12.7 13.4 73 2.8 W 35 43 19 23 1013.6 1013.6 0.2
05/12:30am 17.7 12.7 13.5 76 2.4 W 32 41 17 22 1013.7 1013.7 0.2
05/12:00am 18.3 12.6 13.0 71 3.0 W 35 41 19 22 1013.8 1013.8 0.2
 
Date/Time
WST
Temp
°C
App
Temp
°C
Dew
Point
Rel
Hum
%
Delta-T
°C
Wind Press
QNH
hPa
Press
MSL
hPa
Rain
since 9 am
mm
Dir
 
Spd
km/h
Gust
km/h
Spd
kts
Gust
kts
04/11:30pm 18.3 12.1 12.6 69 3.2 WSW 37 43 20 23 1014.1 1014.1 0.2
04/11:00pm 18.3 12.5 12.6 69 3.2 W 35 43 19 23 1014.2 1014.2 0.2
04/10:30pm 18.1 12.6 12.3 69 3.2 W 33 39 18 21 1014.4 1014.4 0.2
04/10:00pm 18.2 12.2 12.2 68 3.3 W 35 44 19 24 1014.3 1014.3 0.2
04/09:30pm 18.2 10.4 11.2 63 3.8 WSW 43 50 23 27 1014.3 1014.3 0.2
04/09:00pm 18.3 8.9 10.2 59 4.3 WSW 50 61 27 33 1014.1 1014.1 0.2
04/08:30pm 18.1 10.0 11.9 67 3.4 WSW 46 56 25 30 1014.1 1014.1 0.2
04/08:00pm 18.6 11.0 13.7 73 2.8 WSW 46 54 25 29 1014.0 1014.0 0.2
04/07:30pm 18.4 9.8 10.4 59 4.3 WSW 46 54 25 29 1013.9 1013.9 0.2
04/07:00pm 18.7 11.3 12.4 67 3.5 W 43 50 23 27 1013.6 1013.6 0.2
04/06:30pm 18.4 11.3 12.3 67 3.4 W 41 48 22 26 1013.4 1013.4 0.2
04/06:00pm 18.6 12.2 12.1 66 3.6 W 37 41 20 22 1013.1 1013.1 0.2
04/05:30pm 18.6 11.2 12.3 67 3.5 W 43 50 23 27 1013.1 1013.1 0.2
04/05:00pm 18.8 11.9 11.7 63 3.9 W 39 52 21 28 1013.1 1013.1 0.2
04/04:30pm 18.6 12.6 13.3 71 3.0 W 37 43 20 23 1013.1 1013.1 0.0
04/04:00pm 18.7 10.9 11.8 64 3.8 W 44 52 24 28 1013.0 1013.0 0.0
04/03:30pm 19.1 11.7 12.3 64 3.8 W 43 48 23 26 1013.0 1013.0 0.0
04/03:00pm 19.0 12.0 13.6 71 3.1 W 43 48 23 26 1013.1 1013.1 0.0
04/02:30pm 19.2 13.1 14.0 72 3.0 W 39 46 21 25 1013.0 1013.0 0.0
04/02:00pm 19.4 13.1 13.4 68 3.4 WNW 39 46 21 25 1013.1 1013.1 0.0
04/01:30pm 19.4 12.2 13.0 66 3.6 W 43 50 23 27 1013.2 1013.2 0.0
04/01:00pm 19.5 13.0 13.0 66 3.7 W 39 44 21 24 1013.5 1013.5 0.0
04/12:30pm 19.9 14.0 13.6 67 3.6 W 37 43 20 23 1013.9 1013.9 0.0
04/12:00pm 19.1 12.3 13.1 68 3.4 W 41 44 22 24 1014.4 1014.4 0.0
04/11:30am 19.3 13.3 13.3 68 3.4 W 37 43 20 23 1014.7 1014.7 0.0
04/11:00am 18.9 13.7 13.4 70 3.1 W 33 37 18 20 1015.2 1015.2 0.0
04/10:30am 18.6 11.9 13.5 72 2.9 W 41 46 22 25 1015.5 1015.5 0.0
04/10:00am 18.4 11.3 13.3 72 2.9 W 43 52 23 28 1015.6 1015.6 0.0
04/09:30am 18.0 13.6 15.1 83 1.7 WNW 32 41 17 22 1015.8 1015.8 0.0
04/09:00am 17.6 14.4 16.3 92 0.8 WNW 28 33 15 18 1015.9 1015.9 1.6
04/08:30am 16.9 11.8 15.9 94 0.6 W 37 46 20 25 1016.2 1016.2 1.6
04/08:00am 18.1 12.9 15.5 85 1.5 W 37 46 20 25 1015.9 1015.9 1.6
04/07:30am 17.5 13.3 15.8 90 1.0 W 32 35 17 19 1015.8 1015.8 1.6
04/07:00am 17.0 13.4 16.3 96 0.4 W 30 33 16 18 1015.9 1015.9 1.0
04/06:30am 17.4 13.8 15.2 87 1.3 NW 28 33 15 18 1015.9 1015.9 0.4
04/06:00am 18.2 13.4 14.0 76 2.4 WNW 32 39 17 21 1015.9 1015.9 0.4
04/05:30am 18.2 12.4 12.6 70 3.1 WNW 35 43 19 23 1015.9 1015.9 0.4
04/05:00am 18.2 13.1 13.2 72 2.8 W 32 39 17 21 1015.9 1015.9 0.4
04/04:30am 18.1 13.4 12.1 68 3.3 WNW 28 35 15 19 1016.1 1016.1 0.4
04/04:00am 18.1 12.8 12.5 70 3.1 WNW 32 37 17 20 1016.3 1016.3 0.4
04/03:30am 18.2 12.7 12.6 70 3.1 W 33 43 18 23 1016.4 1016.4 0.4
04/03:00am 17.8 14.6 15.2 85 1.5 W 26 33 14 18 1016.6 1016.6 0.4
04/02:30am 17.7 14.0 15.1 85 1.5 W 28 33 15 18 1016.8 1016.8 0.4
04/02:00am 18.0 14.0 14.2 78 2.2 W 28 35 15 19 1017.0 1017.0 0.4
04/01:30am 18.2 15.1 14.4 78 2.2 W 24 30 13 16 1017.2 1017.2 0.4
04/01:00am 18.0 13.3 13.2 73 2.7 W 30 35 16 19 1017.5 1017.5 0.4
04/12:30am 17.9 13.1 12.9 72 2.8 W 30 39 16 21 1017.8 1017.8 0.4
04/12:00am 18.1 14.0 13.9 76 2.4 W 28 33 15 18 1017.9 1017.9 0.4
 
Date/Time
WST
Temp
°C
App
Temp
°C
Dew
Point
Rel
Hum
%
Delta-T
°C
Wind Press
QNH
hPa
Press
MSL
hPa
Rain
since 9 am
mm
Dir
 
Spd
km/h
Gust
km/h
Spd
kts
Gust
kts
03/11:30pm 17.8 13.2 13.6 76 2.4 W 30 33 16 18 1018.1 1018.1 0.4
03/11:00pm 17.7 13.9 13.6 77 2.3 W 26 32 14 17 1018.5 1018.5 0.4
03/10:30pm 17.7 13.3 14.0 79 2.1 W 30 33 16 18 1018.7 1018.7 0.4
03/10:00pm 17.6 13.3 13.1 75 2.5 WSW 28 32 15 17 1019.0 1019.0 0.4
03/09:30pm 17.6 13.8 13.5 77 2.3 W 26 30 14 16 1019.1 1019.1 0.4
03/09:00pm 17.7 14.6 14.4 81 1.9 W 24 30 13 16 1019.3 1019.3 0.4
03/08:30pm 17.4 14.2 14.2 81 1.8 W 24 28 13 15 1019.3 1019.3 0.4
03/08:00pm 16.8 14.2 14.9 88 1.1 WSW 22 26 12 14 1019.5 1019.5 0.4
03/07:30pm 17.1 13.9 15.2 88 1.1 WSW 26 32 14 17 1019.6 1019.6 0.4
03/07:00pm 17.0 16.2 15.1 88 1.1 WSW 13 17 7 9 1019.6 1019.6 0.2
03/06:30pm 17.3 14.4 15.1 87 1.3 WSW 24 30 13 16 1019.4 1019.4 0.2
03/06:00pm 17.5 14.2 14.0 80 2.0 W 24 30 13 16 1019.3 1019.3 0.2
03/05:30pm 17.6 14.4 14.3 81 1.9 W 24 30 13 16 1019.2 1019.2 0.2
03/05:00pm 18.1 16.6 14.1 77 2.3 WNW 15 17 8 9 1019.3 1019.3 0.2
03/04:30pm 18.3 16.0 13.1 71 2.9 WSW 17 20 9 11 1019.4 1019.4 0.2
03/04:00pm 19.1 16.1 11.8 62 4.0 W 19 24 10 13 1019.4 1019.4 0.2
03/03:30pm 19.2 16.3 12.2 64 3.9 W 19 22 10 12 1019.4 1019.4 0.2
03/03:00pm 19.4 17.0 12.6 64 3.8 W 17 20 9 11 1019.6 1019.6 0.2
03/02:30pm 18.9 15.7 12.0 64 3.8 WSW 20 26 11 14 1019.7 1019.7 0.2
03/02:00pm 18.8 15.4 12.5 67 3.5 W 22 26 12 14 1019.8 1019.8 0.2
03/01:30pm 18.4 16.5 13.1 71 3.0 WSW 15 19 8 10 1020.1 1020.1 0.2
03/01:00pm 18.5 18.4 13.9 74 2.6 W 7 20 4 11 1020.3 1020.3 0.0
03/12:30pm 18.5 16.3 14.5 77 2.3 W 19 28 10 15 1020.7 1020.7 0.0
03/12:00pm 19.1 17.0 13.5 70 3.2 WSW 17 20 9 11 1021.0 1021.0 0.0
03/11:30am 18.9 16.4 13.6 71 3.0 WSW 19 20 10 11 1021.4 1021.4 0.0
03/11:00am 19.7 17.5 13.2 66 3.7 WSW 17 20 9 11 1021.5 1021.5 0.0
03/10:30am 19.1 16.7 13.7 71 3.1 WSW 19 22 10 12 1021.5 1021.5 0.0
03/10:00am 18.7 16.5 13.4 71 3.0 SW 17 22 9 12 1021.5 1021.5 0.0
03/09:30am 18.6 16.7 14.1 75 2.6 SW 17 22 9 12 1021.6 1021.6 0.0
03/09:00am 18.3 16.4 14.1 76 2.4 SW 17 22 9 12 1021.6 1021.6 0.4
03/08:30am 16.9 14.5 13.9 82 1.7 SSW 19 22 10 12 1021.5 1021.5 0.4
03/08:00am 16.6 13.8 14.3 86 1.3 SSW 22 32 12 17 1021.5 1021.5 0.4
03/07:30am 16.6 14.4 14.5 87 1.2 SW 19 30 10 16 1021.2 1021.2 0.4
03/07:00am 16.0 16.1 14.4 90 0.9 S 7 13 4 7 1020.8 1020.8 0.4
03/06:30am 16.0 15.3 14.4 90 0.9 SSW 11 15 6 8 1020.8 1020.8 0.4
03/06:00am 16.6 13.5 14.5 87 1.2 SSW 24 33 13 18 1020.7 1020.7 0.4
03/05:30am 16.8 13.3 13.4 80 1.9 SW 24 30 13 16 1020.6 1020.6 0.4
03/05:00am 16.7 13.5 14.2 85 1.4 SW 24 35 13 19 1020.4 1020.4 0.4
03/04:30am 17.2 12.6 13.5 79 2.1 SW 30 37 16 20 1020.3 1020.3 0.4
03/04:00am 17.2 13.4 13.5 79 2.1 SW 26 37 14 20 1020.1 1020.1 0.4
03/03:30am 17.1 12.3 14.1 82 1.7 SW 32 43 17 23 1020.4 1020.4 0.4
03/03:00am 17.3 12.5 14.5 83 1.6 WSW 33 39 18 21 1020.4 1020.4 0.4
03/02:30am 17.0 11.4 14.4 85 1.5 SW 37 46 20 25 1020.7 1020.7 0.4
03/02:00am 17.2 12.6 13.5 79 2.1 SW 30 39 16 21 1020.7 1020.7 0.4
03/01:30am 16.7 12.5 14.6 87 1.2 SW 30 43 16 23 1020.9 1020.9 0.4
03/01:00am 18.0 13.6 14.2 78 2.2 WSW 30 33 16 18 1020.9 1020.9 0.2
03/12:30am 17.6 13.8 13.7 78 2.2 WSW 26 30 14 16 1021.0 1021.0 0.2
03/12:00am 17.3 12.5 14.1 81 1.8 WSW 32 39 17 21 1021.2 1021.2 0.2
 
Date/Time
WST
Temp
°C
App
Temp
°C
Dew
Point
Rel
Hum
%
Delta-T
°C
Wind Press
QNH
hPa
Press
MSL
hPa
Rain
since 9 am
mm
Dir
 
Spd
km/h
Gust
km/h
Spd
kts
Gust
kts
02/11:30pm 18.0 12.9 13.0 72 2.8 WSW 32 35 17 19 1021.1 1021.1 0.2
02/11:00pm 18.0 13.4 13.4 74 2.6 SW 30 35 16 19 1021.2 1021.2 0.2
02/10:30pm 17.9 14.1 13.5 75 2.5 SW 26 35 14 19 1021.4 1021.4 0.2
02/10:00pm 17.9 13.7 13.5 75 2.5 SW 28 33 15 18 1021.3 1021.3 0.2
02/09:30pm 17.7 14.0 13.8 78 2.2 WSW 26 33 14 18 1021.2 1021.2 0.2
02/09:00pm 17.5 13.6 13.4 77 2.3 WSW 26 32 14 17 1021.0 1021.0 0.2
02/08:30pm 17.7 13.9 13.6 77 2.3 SW 26 33 14 18 1020.9 1020.9 0.2
02/08:00pm 18.0 14.3 14.0 77 2.3 SW 26 30 14 16 1020.8 1020.8 0.2
02/07:30pm 17.9 13.8 13.7 76 2.4 WSW 28 32 15 17 1020.9 1020.9 0.2
02/07:00pm 17.7 14.1 14.2 80 2.0 WSW 26 32 14 17 1020.9 1020.9 0.2
02/06:30pm 17.5 14.5 13.6 78 2.2 WSW 22 28 12 15 1020.5 1020.5 0.2
02/06:00pm 17.6 14.1 13.3 76 2.4 WSW 24 30 13 16 1020.2 1020.2 0.2
02/05:30pm 17.7 13.7 13.1 74 2.6 SW 26 33 14 18 1020.2 1020.2 0.2
02/05:00pm 18.4 14.5 13.3 72 2.9 WSW 26 32 14 17 1020.1 1020.1 0.2
02/04:30pm 18.6 13.9 13.1 70 3.1 WSW 30 33 16 18 1019.8 1019.8 0.2
02/04:00pm 19.1 14.8 13.3 69 3.3 SW 28 33 15 18 1019.9 1019.9 0.2
02/03:30pm 19.5 14.1 12.9 65 3.7 WSW 33 41 18 22 1019.7 1019.7 0.2
02/03:00pm 18.1 13.1 14.1 77 2.3 WSW 33 41 18 22 1019.7 1019.7 0.2

Other Formats:

Comma delimited format used in spreadsheet applications
http://www.bom.gov.au/fwo/IDW60801/IDW60801.94601.axf

JavaScript Object Notation format (JSON) in row-major order
http://www.bom.gov.au/fwo/IDW60801/IDW60801.94601.json